Time;durP1;ratioP1;P1;durP2;ratioP2;P2;SDS_P1;SDS_P2;PMS_P1;PMS_P2;Temp;Humidity;BMP_temperature;BMP_pressure;BME280_temperature;BME280_humidity;BME280_pressure;Samples;Min_cycle;Max_cycle;Signal;HPM_P1;HPM_P2
2022/08/28 00:01:31;;;;;;;7.90;5.30;;;;;;;17.67;68.48;100039.80;88930;1265;79470;-59
2022/08/28 00:03:39;;;;;;;9.50;5.90;;;;;;;17.66;68.60;100041.10;89003;1265;81108;-59
2022/08/28 00:05:55;;;;;;;9.70;5.60;;;;;;;17.65;68.63;100036.98;89052;1265;98759;-60
2022/08/28 00:08:07;;;;;;;10.50;5.90;;;;;;;17.65;68.78;100039.70;89019;1265;88117;-60
2022/08/28 00:10:21;;;;;;;11.80;6.20;;;;;;;17.65;68.96;100038.13;89014;1265;94259;-60
2022/08/28 00:12:31;;;;;;;10.00;5.20;;;;;;;17.66;69.17;100039.09;88998;1265;81974;-60
2022/08/28 00:14:41;;;;;;;6.50;5.20;;;;;;;17.66;69.36;100041.05;89019;1265;82631;-61
2022/08/28 00:16:55;;;;;;;12.20;6.10;;;;;;;17.69;69.40;100042.13;88988;1265;98529;-58
2022/08/28 00:19:11;;;;;;;11.50;5.90;;;;;;;17.73;69.42;100038.83;89005;1265;88789;-59
2022/08/28 00:21:26;;;;;;;11.20;5.90;;;;;;;17.77;69.28;100035.30;88963;1265;93683;-61
2022/08/28 00:23:42;;;;;;;14.00;7.00;;;;;;;17.79;69.21;100035.81;88960;1265;79488;-60
2022/08/28 00:25:51;;;;;;;7.20;5.40;;;;;;;17.77;69.23;100038.58;89034;1265;82134;-61
2022/08/28 00:28:12;;;;;;;11.50;6.10;;;;;;;17.73;69.18;100036.52;89034;1265;98507;-61
2022/08/28 00:30:30;;;;;;;12.20;5.90;;;;;;;17.66;69.08;100037.83;88985;1265;88995;-58
2022/08/28 00:32:42;;;;;;;11.10;6.10;;;;;;;17.60;69.22;100041.96;88915;1267;94061;-59
2022/08/28 00:34:52;;;;;;;11.50;5.90;;;;;;;17.55;69.19;100044.25;89011;1265;79538;-58
2022/08/28 00:37:07;;;;;;;8.30;5.60;;;;;;;17.50;69.38;100042.11;88985;1265;82444;-61
2022/08/28 00:39:18;;;;;;;10.80;5.10;;;;;;;17.45;69.46;100039.90;88981;1265;99395;-61
2022/08/28 00:41:30;;;;;;;8.30;5.30;;;;;;;17.44;69.45;100038.95;88942;1267;89390;-59
2022/08/28 00:43:45;;;;;;;13.40;5.70;;;;;;;17.42;69.48;100033.71;88989;1265;95101;-58
2022/08/28 00:45:55;;;;;;;12.80;6.40;;;;;;;17.42;69.42;100030.60;88966;1265;82328;-59
2022/08/28 00:48:05;;;;;;;11.00;6.00;;;;;;;17.39;69.52;100035.45;89013;1265;81765;-60
2022/08/28 00:50:23;;;;;;;15.60;6.10;;;;;;;17.36;69.45;100031.45;89003;1265;99514;-62
2022/08/28 00:52:36;;;;;;;7.90;5.40;;;;;;;17.31;69.64;100026.81;88971;1265;88804;-59
2022/08/28 00:54:54;;;;;;;10.70;5.80;;;;;;;17.26;69.67;100025.14;88976;1265;95182;-61
2022/08/28 00:57:06;;;;;;;9.50;6.30;;;;;;;17.19;69.71;100024.83;88986;1265;80344;-60
2022/08/28 00:59:18;;;;;;;11.90;6.00;;;;;;;17.13;69.83;100023.88;89021;1265;82488;-60
2022/08/28 01:01:37;;;;;;;10.70;5.70;;;;;;;17.07;69.85;100025.52;89018;1265;99625;-58
2022/08/28 01:03:50;;;;;;;8.20;5.60;;;;;;;17.02;69.95;100026.22;88988;1265;88090;-59
2022/08/28 01:06:07;;;;;;;9.90;5.30;;;;;;;16.98;70.16;100024.88;88966;1265;95128;-59
2022/08/28 01:08:18;;;;;;;7.80;5.40;;;;;;;16.98;70.14;100025.25;88989;1265;82497;-59
2022/08/28 01:10:33;;;;;;;11.40;6.00;;;;;;;16.98;70.12;100027.71;89023;1265;81402;-58
2022/08/28 01:12:45;;;;;;;9.20;5.80;;;;;;;16.97;70.40;100023.27;88973;1265;99142;-59
2022/08/28 01:15:01;;;;;;;11.90;6.60;;;;;;;16.93;70.45;100025.31;89002;1265;87645;-59
2022/08/28 01:17:13;;;;;;;10.50;6.20;;;;;;;16.93;70.51;100026.23;89046;1265;95238;-60
2022/08/28 01:19:30;;;;;;;12.00;6.50;;;;;;;16.92;70.54;100022.55;89041;1265;81820;-59
2022/08/28 01:22:06;;;;;;;14.80;6.80;;;;;;;16.92;70.46;100024.09;89014;1265;82829;-61
2022/08/28 01:24:18;;;;;;;9.70;6.40;;;;;;;16.85;70.57;100024.63;88988;1265;100060;-61
2022/08/28 01:26:33;;;;;;;12.20;6.90;;;;;;;16.80;70.61;100024.04;88989;1265;86285;-60
2022/08/28 01:28:46;;;;;;;11.60;7.10;;;;;;;16.78;70.58;100021.36;88987;1265;94479;-59
2022/08/28 01:30:57;;;;;;;8.80;6.90;;;;;;;16.73;70.70;100023.65;88988;1265;80070;-61
2022/08/28 01:33:08;;;;;;;9.10;6.10;;;;;;;16.68;70.72;100022.35;88968;1265;82816;-61
2022/08/28 01:35:23;;;;;;;13.80;7.00;;;;;;;16.67;70.70;100028.12;88998;1265;99553;-59
2022/08/28 01:37:35;;;;;;;13.00;6.30;;;;;;;16.66;70.75;100029.10;88962;1259;89036;-59
2022/08/28 01:39:46;;;;;;;11.90;6.50;;;;;;;16.62;70.76;100026.95;88952;1265;94778;-58
2022/08/28 01:41:59;;;;;;;9.10;6.60;;;;;;;16.59;70.81;100027.64;88960;1265;80585;-61
2022/08/28 01:44:11;;;;;;;12.70;6.80;;;;;;;16.56;70.91;100024.78;89000;1265;81855;-61
2022/08/28 01:46:25;;;;;;;13.90;6.60;;;;;;;16.53;70.99;100024.27;88973;1265;99340;-59
2022/08/28 01:48:41;;;;;;;11.30;6.70;;;;;;;16.53;71.09;100020.73;88983;1265;87801;-59
2022/08/28 01:51:02;;;;;;;8.00;6.40;;;;;;;16.51;71.08;100020.11;88983;1265;93911;-60
2022/08/28 01:53:22;;;;;;;9.40;6.90;;;;;;;16.49;71.08;100018.49;88991;1265;80450;-61
2022/08/28 01:55:32;;;;;;;9.90;6.70;;;;;;;16.48;71.14;100021.75;89021;1265;82750;-60
2022/08/28 01:57:53;;;;;;;8.70;6.00;;;;;;;16.46;71.15;100018.85;88958;1265;99096;-60
2022/08/28 02:00:02;;;;;;;8.00;6.20;;;;;;;16.40;71.33;100021.94;89018;1265;87707;-59
2022/08/28 02:02:17;;;;;;;9.40;6.30;;;;;;;16.37;71.42;100025.06;89006;1265;93772;-57
2022/08/28 02:04:28;;;;;;;10.10;6.90;;;;;;;16.35;71.41;100020.88;88956;1267;80809;-59
2022/08/28 02:06:44;;;;;;;9.50;7.10;;;;;;;16.34;71.60;100020.54;89025;1265;82085;-59
2022/08/28 02:08:58;;;;;;;11.70;6.90;;;;;;;16.32;71.62;100022.54;88981;1265;98174;-62
2022/08/28 02:11:09;;;;;;;9.20;6.50;;;;;;;16.29;71.77;100023.77;89007;1265;89142;-59
2022/08/28 02:13:21;;;;;;;11.80;7.10;;;;;;;16.27;71.77;100021.31;88984;1265;94686;-60
2022/08/28 02:15:36;;;;;;;9.20;6.50;;;;;;;16.25;71.89;100019.21;88972;1265;82095;-60
2022/08/28 02:17:47;;;;;;;8.70;6.80;;;;;;;16.23;71.89;100019.54;88966;1265;83115;-60
2022/08/28 02:19:59;;;;;;;9.90;6.90;;;;;;;16.19;72.06;100020.20;88972;1265;98391;-59
2022/08/28 02:22:12;;;;;;;11.20;7.60;;;;;;;16.15;72.20;100022.35;88969;1265;86990;-59
2022/08/28 02:24:24;;;;;;;13.60;7.30;;;;;;;16.14;72.19;100024.34;88954;1265;93566;-59
2022/08/28 02:26:38;;;;;;;13.70;7.30;;;;;;;16.11;72.36;100022.25;88972;1265;81961;-61
2022/08/28 02:28:51;;;;;;;11.70;7.20;;;;;;;16.10;72.41;100021.77;88985;1265;81165;-60
2022/08/28 02:31:01;;;;;;;9.20;7.40;;;;;;;16.11;72.53;100022.02;88996;1265;99718;-59
2022/08/28 02:33:15;;;;;;;11.80;7.30;;;;;;;16.12;72.59;100017.91;88979;1265;88541;-59
2022/08/28 02:35:27;;;;;;;9.20;7.10;;;;;;;16.11;72.63;100022.08;89018;1265;94003;-60
2022/08/28 02:37:43;;;;;;;9.50;7.30;;;;;;;16.05;72.81;100018.65;88973;1265;80899;-60
2022/08/28 02:39:56;;;;;;;11.70;7.40;;;;;;;16.03;72.68;100019.91;88951;1267;82197;-59
2022/08/28 02:42:07;;;;;;;11.20;8.50;;;;;;;16.01;72.85;100017.79;88949;1265;99167;-59
2022/08/28 02:44:21;;;;;;;10.90;7.50;;;;;;;15.98;72.83;100020.97;88982;1265;88897;-59
2022/08/28 02:46:39;;;;;;;9.90;7.50;;;;;;;15.94;72.96;100016.52;88961;1265;94696;-60
2022/08/28 02:48:50;;;;;;;11.50;7.40;;;;;;;15.92;72.83;100017.69;88955;1265;80990;-60
2022/08/28 02:51:04;;;;;;;11.30;7.80;;;;;;;15.88;73.03;100015.78;89017;1257;82599;-59
2022/08/28 02:53:14;;;;;;;11.10;7.50;;;;;;;15.87;73.16;100016.57;88986;1265;99394;-58
2022/08/28 02:55:30;;;;;;;12.90;8.00;;;;;;;15.85;73.23;100025.22;88992;1265;87126;-61
2022/08/28 02:57:39;;;;;;;12.60;8.60;;;;;;;15.86;73.33;100032.17;88945;1265;93938;-61
2022/08/28 02:59:49;;;;;;;10.20;8.10;;;;;;;15.86;73.41;100031.91;88988;1265;76753;-60
2022/08/28 03:02:02;;;;;;;13.30;8.70;;;;;;;15.85;73.50;100027.61;88997;1265;80216;-59
2022/08/28 03:04:13;;;;;;;13.20;8.20;;;;;;;15.85;73.49;100029.20;89006;1265;100026;-60
2022/08/28 03:06:22;;;;;;;10.70;8.00;;;;;;;15.81;73.48;100030.40;88966;1265;88867;-60
2022/08/28 03:08:32;;;;;;;12.40;8.30;;;;;;;15.78;73.46;100029.94;88944;1265;94961;-60
2022/08/28 03:10:44;;;;;;;10.90;8.30;;;;;;;15.75;73.57;100031.95;89006;1265;80568;-60
2022/08/28 03:12:53;;;;;;;13.80;8.70;;;;;;;15.73;73.60;100031.27;89009;1265;82018;-60
2022/08/28 03:15:06;;;;;;;11.50;8.00;;;;;;;15.71;73.48;100030.05;88962;1265;99536;-60
2022/08/28 03:17:18;;;;;;;13.10;8.60;;;;;;;15.67;73.58;100029.92;89020;1265;87307;-60
2022/08/28 03:19:31;;;;;;;12.50;7.90;;;;;;;15.66;73.69;100026.29;88869;1265;93970;-60
2022/08/28 03:21:42;;;;;;;13.00;8.50;;;;;;;15.64;73.62;100024.45;89009;1265;80409;-60
2022/08/28 03:23:57;;;;;;;11.30;8.70;;;;;;;15.63;73.71;100022.78;89031;1265;82766;-61
2022/08/28 03:26:12;;;;;;;11.00;7.50;;;;;;;15.60;73.67;100025.75;88986;1265;99764;-60
2022/08/28 03:28:25;;;;;;;12.00;8.70;;;;;;;15.57;73.87;100021.40;88981;1265;88282;-62
2022/08/28 03:30:35;;;;;;;13.40;9.00;;;;;;;15.55;73.92;100022.56;88954;1265;93177;-61
2022/08/28 03:32:45;;;;;;;10.80;8.60;;;;;;;15.53;74.11;100026.33;89025;1265;80811;-59
2022/08/28 03:34:57;;;;;;;12.50;8.00;;;;;;;15.51;74.33;100020.45;89016;1265;81139;-60
2022/08/28 03:37:08;;;;;;;12.50;8.30;;;;;;;15.51;74.33;100021.54;88971;1265;98962;-60
2022/08/28 03:39:19;;;;;;;13.40;9.00;;;;;;;15.52;74.24;100020.30;88967;1265;86156;-59
2022/08/28 03:41:35;;;;;;;12.50;8.40;;;;;;;15.52;74.35;100023.68;88944;1265;93215;-60
2022/08/28 03:43:47;;;;;;;14.00;9.60;;;;;;;15.52;74.53;100027.38;88957;1265;81117;-60
2022/08/28 03:46:01;;;;;;;15.50;9.30;;;;;;;15.52;74.57;100030.23;88989;1265;82920;-60
2022/08/28 03:48:17;;;;;;;18.60;9.20;;;;;;;15.51;74.68;100029.95;88962;1265;99107;-59
2022/08/28 03:50:27;;;;;;;12.00;8.50;;;;;;;15.50;74.62;100037.23;88938;1265;88120;-59
2022/08/28 03:52:39;;;;;;;12.10;8.30;;;;;;;15.53;74.59;100041.73;88944;1265;94025;-59
2022/08/28 03:54:48;;;;;;;11.20;8.50;;;;;;;15.55;74.60;100040.31;88927;1265;80709;-59
2022/08/28 03:57:00;;;;;;;10.80;8.40;;;;;;;15.54;74.64;100041.00;88978;1265;82091;-60
2022/08/28 03:59:08;;;;;;;11.90;8.70;;;;;;;15.54;74.57;100039.38;88972;1265;99008;-59
2022/08/28 04:01:22;;;;;;;11.00;8.80;;;;;;;15.54;74.74;100039.20;88910;1267;87164;-60
2022/08/28 04:03:34;;;;;;;13.20;9.00;;;;;;;15.59;74.69;100039.59;89022;1265;91672;-61
2022/08/28 04:05:45;;;;;;;11.90;9.60;;;;;;;15.60;74.67;100041.55;89046;1265;79608;-61
2022/08/28 04:07:58;;;;;;;13.10;9.30;;;;;;;15.59;74.81;100045.42;89056;1265;81243;-62
2022/08/28 04:10:10;;;;;;;10.60;9.10;;;;;;;15.60;74.84;100049.16;88958;1267;95845;-59
2022/08/28 04:12:22;;;;;;;13.20;9.60;;;;;;;15.61;74.94;100046.81;89006;1265;88334;-59
2022/08/28 04:14:33;;;;;;;17.20;10.70;;;;;;;15.67;75.07;100042.99;88985;1259;94091;-59
2022/08/28 04:16:45;;;;;;;14.40;9.90;;;;;;;15.74;75.10;100046.63;89033;1265;82612;-60
2022/08/28 04:19:00;;;;;;;15.30;10.20;;;;;;;15.83;75.04;100046.64;88995;1265;81665;-60
2022/08/28 04:21:15;;;;;;;15.50;9.40;;;;;;;15.88;75.11;100048.14;88938;1265;98978;-61
2022/08/28 04:23:26;;;;;;;13.80;10.10;;;;;;;15.97;75.02;100050.55;88952;1265;89514;-60
2022/08/28 04:25:36;;;;;;;12.20;9.80;;;;;;;16.06;74.96;100049.95;88943;1265;95005;-59
2022/08/28 04:27:47;;;;;;;15.20;9.90;;;;;;;16.16;74.91;100050.23;88939;1265;80386;-59
2022/08/28 04:29:56;;;;;;;13.60;9.90;;;;;;;16.28;75.18;100051.08;88968;1265;82850;-60
2022/08/28 04:32:06;;;;;;;13.90;10.60;;;;;;;16.81;75.62;100054.70;88978;1265;99539;-60
2022/08/28 04:34:15;;;;;;;13.20;9.30;;;;;;;17.66;75.20;100050.25;88986;1265;88931;-60
2022/08/28 04:36:26;;;;;;;15.00;10.80;;;;;;;18.47;74.20;100044.23;88944;1265;94116;-60
2022/08/28 04:38:40;;;;;;;16.20;10.60;;;;;;;19.26;73.19;100045.56;88999;1265;79561;-60
2022/08/28 04:40:56;;;;;;;14.20;9.90;;;;;;;19.98;71.91;100042.80;88985;1265;82783;-61
2022/08/28 04:43:06;;;;;;;14.30;10.20;;;;;;;20.35;70.66;100043.55;88928;1265;99763;-59
2022/08/28 04:45:18;;;;;;;14.00;10.00;;;;;;;20.86;69.81;100043.81;89011;1265;89118;-60
2022/08/28 04:47:30;;;;;;;13.10;9.90;;;;;;;21.38;68.92;100043.02;89030;1265;93947;-60
2022/08/28 04:49:48;;;;;;;11.80;9.90;;;;;;;21.72;67.72;100041.38;89012;1265;79400;-61
2022/08/28 04:52:01;;;;;;;13.50;9.90;;;;;;;21.46;67.20;100042.56;88996;1265;80375;-60
2022/08/28 04:54:16;;;;;;;15.00;10.20;;;;;;;21.06;67.23;100043.06;88972;1265;100329;-63
2022/08/28 04:56:27;;;;;;;14.20;9.80;;;;;;;20.67;67.21;100039.30;88997;1265;88990;-61
2022/08/28 04:58:37;;;;;;;11.30;9.60;;;;;;;20.35;67.22;100040.69;89023;1265;93518;-61
2022/08/28 05:00:54;;;;;;;11.50;9.20;;;;;;;20.08;67.33;100043.70;88980;1258;79548;-60
2022/08/28 05:03:03;;;;;;;14.40;9.40;;;;;;;19.89;67.60;100041.05;88984;1265;82889;-60
2022/08/28 05:05:13;;;;;;;12.80;8.50;;;;;;;19.75;67.67;100047.61;89004;1265;99815;-59
2022/08/28 05:07:24;;;;;;;12.10;9.20;;;;;;;19.68;67.87;100048.45;88982;1265;89472;-61
2022/08/28 05:09:38;;;;;;;14.60;8.90;;;;;;;19.63;68.11;100045.44;88952;1265;95487;-60
2022/08/28 05:11:55;;;;;;;11.60;8.70;;;;;;;19.65;68.26;100043.28;88946;1265;77555;-61
2022/08/28 05:14:08;;;;;;;10.10;7.90;;;;;;;19.73;68.39;100044.02;88934;1265;82123;-61
2022/08/28 05:16:19;;;;;;;10.30;7.60;;;;;;;19.80;68.52;100039.38;88946;1265;99683;-60
2022/08/28 05:18:31;;;;;;;11.30;7.30;;;;;;;19.90;68.73;100038.45;89001;1265;87226;-60
2022/08/28 05:20:43;;;;;;;13.20;8.00;;;;;;;20.00;68.62;100039.20;88943;1259;92921;-61
2022/08/28 05:22:52;;;;;;;12.20;7.30;;;;;;;20.16;68.50;100036.65;88958;1265;81584;-61
2022/08/28 05:25:04;;;;;;;10.10;7.40;;;;;;;20.31;68.54;100035.13;88935;1265;81864;-60
2022/08/28 05:27:13;;;;;;;10.80;7.80;;;;;;;20.42;68.49;100035.59;89000;1265;98153;-60
2022/08/28 05:29:23;;;;;;;12.60;7.60;;;;;;;20.55;68.62;100032.90;88995;1265;87912;-60
2022/08/28 05:31:39;;;;;;;11.70;8.40;;;;;;;20.83;68.91;100033.80;88994;1259;94950;-59
2022/08/28 05:33:50;;;;;;;11.90;7.90;;;;;;;22.01;69.04;100032.85;88980;1265;78722;-59
2022/08/28 05:36:07;;;;;;;10.70;6.90;;;;;;;23.54;67.31;100033.37;89019;1267;81673;-59
2022/08/28 05:38:18;;;;;;;11.30;7.70;;;;;;;25.01;65.84;100033.48;88997;1265;98294;-60
2022/08/28 05:40:30;;;;;;;9.90;7.70;;;;;;;26.32;64.33;100035.70;88995;1265;87299;-61
2022/08/28 05:42:46;;;;;;;9.30;7.90;;;;;;;27.35;62.37;100037.29;88947;1265;93988;-61
2022/08/28 05:44:57;;;;;;;10.10;7.60;;;;;;;28.29;60.37;100042.42;89002;1265;79473;-60
2022/08/28 05:47:15;;;;;;;10.60;6.60;;;;;;;29.05;58.21;100035.20;88960;1265;82851;-60
2022/08/28 05:49:31;;;;;;;10.50;7.10;;;;;;;29.62;56.75;100029.90;88971;1265;99146;-60
2022/08/28 05:51:46;;;;;;;12.30;7.90;;;;;;;30.34;54.99;100031.39;89051;1265;88158;-61
2022/08/28 05:53:57;;;;;;;12.40;7.50;;;;;;;31.07;53.19;100029.07;88989;1265;92487;-62
2022/08/28 05:56:15;;;;;;;12.30;7.30;;;;;;;31.81;51.61;100031.73;89016;1265;79483;-61
2022/08/28 05:58:32;;;;;;;10.90;6.40;;;;;;;32.33;50.05;100033.42;89000;1265;82420;-61
2022/08/28 06:00:43;;;;;;;9.60;6.90;;;;;;;32.73;48.64;100038.19;89002;1265;98307;-59
2022/08/28 06:02:57;;;;;;;11.40;7.40;;;;;;;33.11;47.78;100039.61;89001;1265;86623;-59
2022/08/28 06:05:12;;;;;;;11.50;6.80;;;;;;;33.61;47.32;100039.34;88983;1265;94000;-61
2022/08/28 06:07:22;;;;;;;12.90;7.00;;;;;;;34.21;45.78;100038.04;88947;1265;79835;-60
2022/08/28 06:09:39;;;;;;;10.60;7.00;;;;;;;34.57;44.82;100036.52;88980;1265;82166;-60
2022/08/28 06:11:53;;;;;;;13.80;6.30;;;;;;;34.92;43.94;100036.80;89002;1265;97242;-60
2022/08/28 06:14:08;;;;;;;14.20;6.90;;;;;;;35.27;42.71;100039.02;88968;1265;88343;-60
2022/08/28 06:16:21;;;;;;;14.30;7.10;;;;;;;35.69;40.51;100035.34;89011;1265;94527;-60
2022/08/28 06:18:35;;;;;;;9.30;7.00;;;;;;;35.88;40.42;100036.98;88975;1265;80120;-61
2022/08/28 06:20:50;;;;;;;9.70;6.50;;;;;;;36.21;39.29;100038.05;88949;1265;80651;-60
2022/08/28 06:23:02;;;;;;;11.20;7.20;;;;;;;36.51;38.48;100037.61;89007;1265;98800;-59
2022/08/28 06:25:13;;;;;;;9.80;6.40;;;;;;;36.66;38.23;100041.27;88959;1265;88138;-60
2022/08/28 06:27:22;;;;;;;10.30;6.80;;;;;;;36.94;37.25;100041.58;88997;1265;95393;-60
2022/08/28 06:29:34;;;;;;;9.20;6.20;;;;;;;36.61;36.58;100038.91;88936;1265;80165;-60
2022/08/28 06:31:44;;;;;;;10.60;7.30;;;;;;;36.24;36.55;100040.71;89005;1265;82876;-61
2022/08/28 06:33:57;;;;;;;12.70;7.00;;;;;;;36.20;36.05;100040.68;88658;1265;395692;-61
2022/08/28 06:36:10;;;;;;;11.30;6.80;;;;;;;35.63;35.30;100039.27;89037;1265;88122;-61
2022/08/28 06:38:21;;;;;;;8.30;7.40;;;;;;;34.62;35.83;100039.30;89028;1265;94470;-62
2022/08/28 06:40:33;;;;;;;10.80;7.60;;;;;;;33.95;36.15;100044.10;89012;1265;79597;-61
2022/08/28 06:42:42;;;;;;;12.10;7.60;;;;;;;33.60;36.06;100037.38;88990;1265;82960;-59
2022/08/28 06:44:54;;;;;;;8.10;7.30;;;;;;;33.17;36.35;100043.37;89016;1265;98097;-58
2022/08/28 06:47:09;;;;;;;10.90;7.30;;;;;;;32.96;36.42;100040.23;89000;1265;87884;-61
2022/08/28 06:49:23;;;;;;;10.70;7.30;;;;;;;32.28;37.12;100039.14;88942;1265;93655;-61
2022/08/28 06:51:35;;;;;;;9.10;7.30;;;;;;;31.49;37.98;100039.97;88989;1265;79178;-60
2022/08/28 06:53:51;;;;;;;11.40;7.50;;;;;;;31.28;38.38;100039.95;88984;1265;82773;-60
2022/08/28 06:56:13;;;;;;;13.50;8.20;;;;;;;30.88;37.90;100036.87;89017;1265;99876;-59
2022/08/28 06:58:25;;;;;;;10.90;7.50;;;;;;;30.42;38.80;100040.15;88986;1265;88570;-60
2022/08/28 07:00:36;;;;;;;18.90;8.50;;;;;;;30.19;39.65;100040.41;88978;1265;93936;-61
2022/08/28 07:02:48;;;;;;;12.60;8.30;;;;;;;30.44;39.58;100040.38;88930;1265;80399;-61
2022/08/28 07:05:00;;;;;;;11.10;8.30;;;;;;;30.73;39.70;100036.30;88960;1265;82578;-59
2022/08/28 07:07:12;;;;;;;11.90;8.50;;;;;;;30.95;39.63;100032.88;88986;1265;98976;-60
2022/08/28 07:09:24;;;;;;;11.20;7.90;;;;;;;31.39;39.52;100031.98;88976;1265;89174;-59
2022/08/28 07:11:35;;;;;;;14.10;8.00;;;;;;;32.18;38.82;100034.19;88963;1265;94249;-59
2022/08/28 07:13:47;;;;;;;15.40;8.50;;;;;;;33.19;37.58;100036.15;88939;1265;79975;-59
2022/08/28 07:15:59;;;;;;;10.90;7.90;;;;;;;33.67;37.57;100029.44;88951;1265;82239;-60
2022/08/28 07:18:15;;;;;;;15.30;8.00;;;;;;;33.37;36.99;100034.61;88948;1265;97341;-61
2022/08/28 07:20:26;;;;;;;13.20;8.00;;;;;;;33.01;37.11;100035.29;88950;1267;88255;-65
2022/08/28 07:22:39;;;;;;;14.40;7.60;;;;;;;33.41;36.51;100034.98;88975;1265;94329;-60
2022/08/28 07:24:53;;;;;;;10.30;7.60;;;;;;;33.53;36.31;100030.55;88986;1265;79425;-59
2022/08/28 07:27:05;;;;;;;11.30;7.60;;;;;;;33.48;36.34;100035.44;88992;1265;81655;-60
2022/08/28 07:29:15;;;;;;;9.50;7.60;;;;;;;33.55;36.86;100035.20;88976;1265;99121;-60
2022/08/28 07:31:27;;;;;;;13.70;8.60;;;;;;;34.32;36.23;100032.27;89002;1265;86428;-59
2022/08/28 07:33:37;;;;;;;9.20;7.50;;;;;;;35.15;34.87;100030.11;88978;1265;95266;-60
2022/08/28 07:35:49;;;;;;;14.10;8.10;;;;;;;35.43;34.81;100033.41;89014;1265;79174;-61
2022/08/28 07:38:06;;;;;;;11.70;8.20;;;;;;;35.58;34.69;100034.17;89025;1265;82992;-61
2022/08/28 07:40:18;;;;;;;10.60;7.30;;;;;;;35.74;34.01;100029.41;88995;1265;99089;-59
2022/08/28 07:45:01;;;;;;;10.00;7.60;;;;;;;36.86;33.07;100031.12;89002;1265;95414;-58
2022/08/28 07:47:13;;;;;;;12.60;7.50;;;;;;;36.98;33.06;100029.41;88940;1265;78526;-59
2022/08/28 07:49:25;;;;;;;8.50;7.10;;;;;;;37.48;32.49;100028.54;88990;1265;82658;-60
2022/08/28 07:51:35;;;;;;;16.90;8.00;;;;;;;38.01;32.31;100023.88;88963;1265;99575;-61
2022/08/28 07:53:44;;;;;;;9.00;7.20;;;;;;;38.34;31.85;100020.80;89003;1265;87918;-59
2022/08/28 07:55:54;;;;;;;11.20;7.40;;;;;;;38.69;31.50;100026.13;89002;1265;94832;-60
2022/08/28 07:58:04;;;;;;;10.80;7.90;;;;;;;39.04;31.58;100025.70;88964;1265;80883;-59
2022/08/28 08:00:18;;;;;;;12.20;7.50;;;;;;;39.39;31.26;100025.00;89003;1265;82988;-59
2022/08/28 08:02:32;;;;;;;12.10;7.60;;;;;;;39.58;30.85;100027.08;88955;1265;99150;-60
2022/08/28 08:04:46;;;;;;;9.80;6.90;;;;;;;39.72;30.81;100031.97;88997;1265;88864;-60
2022/08/28 08:07:02;;;;;;;9.90;7.10;;;;;;;39.91;30.40;100034.19;88926;1265;93881;-59
2022/08/28 08:09:16;;;;;;;12.20;7.10;;;;;;;40.12;30.11;100039.76;88984;1265;79761;-62
2022/08/28 08:11:28;;;;;;;9.50;6.80;;;;;;;40.34;29.42;100034.75;89008;1265;83329;-61
2022/08/28 08:13:42;;;;;;;10.10;6.80;;;;;;;40.20;28.87;100030.48;88987;1265;98665;-60
2022/08/28 08:15:52;;;;;;;9.60;6.60;;;;;;;40.11;28.83;100031.59;88963;1265;88304;-59
2022/08/28 08:18:04;;;;;;;7.80;6.80;;;;;;;40.27;29.15;100031.99;88928;1268;93151;-59
2022/08/28 08:20:14;;;;;;;12.90;7.30;;;;;;;40.49;28.90;100033.79;88989;1265;79385;-60
2022/08/28 08:22:24;;;;;;;8.50;6.60;;;;;;;40.55;28.46;100030.75;89000;1265;82640;-61
2022/08/28 08:24:38;;;;;;;8.80;6.40;;;;;;;40.52;28.52;100034.60;88964;1267;99944;-59
2022/08/28 08:26:53;;;;;;;11.00;7.00;;;;;;;40.75;29.10;100035.41;89027;1265;86809;-60
2022/08/28 08:29:03;;;;;;;10.40;6.90;;;;;;;40.88;28.59;100035.77;89003;1265;93712;-59
2022/08/28 08:31:25;;;;;;;10.30;6.80;;;;;;;40.85;28.52;100039.08;88963;1265;79847;-59
2022/08/28 08:33:39;;;;;;;10.70;7.00;;;;;;;40.73;28.47;100035.15;88941;1268;83223;-60
2022/08/28 08:35:51;;;;;;;10.10;6.50;;;;;;;40.87;28.25;100038.67;88995;1265;99107;-61
2022/08/28 08:37:59;;;;;;;9.40;6.60;;;;;;;40.92;27.81;100038.63;88958;1265;88221;-59
2022/08/28 08:40:14;;;;;;;7.30;6.10;;;;;;;40.93;27.74;100040.98;88968;1265;94771;-67
2022/08/28 08:42:28;;;;;;;10.50;6.70;;;;;;;40.74;27.50;100042.05;88903;1268;79017;-67
2022/08/28 08:44:43;;;;;;;8.20;6.10;;;;;;;40.59;27.64;100038.85;89038;1265;82171;-64
2022/08/28 08:47:06;;;;;;;10.10;6.70;;;;;;;40.71;27.95;100041.64;88948;1265;98848;-63
2022/08/28 08:49:25;;;;;;;9.60;6.70;;;;;;;40.66;27.89;100038.63;88953;1265;87645;-66
2022/08/28 08:51:47;;;;;;;10.50;6.70;;;;;;;40.67;27.69;100041.77;88998;1265;95242;-62
2022/08/28 08:54:12;;;;;;;9.40;6.50;;;;;;;40.56;27.63;100040.95;88969;1265;80092;-61
2022/08/28 08:56:27;;;;;;;9.20;6.50;;;;;;;40.65;27.55;100040.41;88987;1265;82549;-65
2022/08/28 08:58:44;;;;;;;10.60;7.30;;;;;;;40.82;27.59;100044.26;88939;1265;99735;-68
2022/08/28 09:01:04;;;;;;;9.30;7.20;;;;;;;40.81;27.47;100043.92;89041;1265;87434;-65
2022/08/28 09:03:26;;;;;;;9.20;6.40;;;;;;;40.60;27.50;100043.70;89003;1265;94706;-65
2022/08/28 09:05:42;;;;;;;;;;;;;;;40.68;27.26;100042.27;89007;1266;79529;-68
2022/08/28 09:08:00;;;;;;;7.50;6.60;;;;;;;40.59;27.20;100045.09;88948;1267;81465;-66
2022/08/28 09:10:14;;;;;;;9.20;5.50;;;;;;;40.56;26.59;100045.23;88953;1265;99535;-65
2022/08/28 09:12:28;;;;;;;9.50;5.90;;;;;;;40.42;27.00;100044.17;88967;1265;86944;-67
2022/08/28 09:14:53;;;;;;;8.80;6.40;;;;;;;40.18;27.36;100050.95;88986;1265;95340;-65
2022/08/28 09:17:06;;;;;;;7.00;6.20;;;;;;;40.05;27.61;100049.16;89001;1265;80334;-65
2022/08/28 09:19:25;;;;;;;10.10;7.50;;;;;;;39.97;27.61;100048.38;89000;1265;82838;-68
2022/08/28 09:21:46;;;;;;;9.60;5.50;;;;;;;39.83;27.91;100046.27;88997;1265;98391;-65
2022/08/28 09:24:02;;;;;;;10.40;6.50;;;;;;;39.78;27.57;100047.38;88960;1265;87786;-65
2022/08/28 09:26:24;;;;;;;7.30;5.50;;;;;;;39.67;27.97;100042.02;89024;1265;93018;-68
2022/08/28 09:28:49;;;;;;;8.10;6.10;;;;;;;39.44;28.05;100046.68;89014;1265;79325;-68
2022/08/28 09:31:10;;;;;;;11.60;6.30;;;;;;;39.16;28.13;100043.92;88994;1265;82950;-67
2022/08/28 09:33:36;;;;;;;10.70;6.50;;;;;;;38.69;28.55;100044.94;89023;1265;99183;-66
2022/08/28 09:35:54;;;;;;;10.60;6.70;;;;;;;38.26;29.14;100041.09;88992;1265;87561;-64
2022/08/28 09:38:30;;;;;;;10.30;7.00;;;;;;;37.91;29.33;100044.77;88988;1265;95199;-64
2022/08/28 09:43:30;;;;;;;10.60;6.80;;;;;;;37.17;30.52;100041.94;89002;1265;80527;-66
2022/08/28 09:45:46;;;;;;;11.30;5.70;;;;;;;36.82;30.55;100046.58;89028;1265;97080;-64
2022/08/28 09:47:57;;;;;;;9.20;5.90;;;;;;;36.54;30.39;100049.31;89008;1265;86322;-63
2022/08/28 09:50:36;;;;;;;10.90;6.40;;;;;;;36.28;31.01;100044.16;89034;1265;93104;-64
2022/08/28 09:52:50;;;;;;;8.80;5.40;;;;;;;36.05;31.23;100046.70;89041;1266;81092;-64
2022/08/28 09:55:01;;;;;;;10.00;5.40;;;;;;;35.83;31.51;100044.02;89068;1265;81975;-65
2022/08/28 09:57:13;;;;;;;9.50;5.30;;;;;;;35.64;31.76;100044.61;89042;1265;98309;-65
2022/08/28 09:59:29;;;;;;;10.50;5.70;;;;;;;35.41;31.56;100044.20;89037;1265;88828;-65
2022/08/28 10:01:58;;;;;;;6.60;4.90;;;;;;;35.20;32.00;100043.58;89018;1265;95831;-68
2022/08/28 10:04:28;;;;;;;8.30;5.60;;;;;;;35.01;32.25;100037.77;88956;1265;78864;-68
2022/08/28 10:06:50;;;;;;;8.40;5.20;;;;;;;34.97;32.64;100047.12;89021;1265;82693;-68
2022/08/28 10:09:20;;;;;;;8.20;5.30;;;;;;;34.92;32.70;100044.33;88991;1265;99749;-65
2022/08/28 10:11:52;;;;;;;6.90;5.20;;;;;;;34.73;32.86;100043.81;89090;1265;88498;-65
2022/08/28 10:14:28;;;;;;;7.10;5.20;;;;;;;34.60;32.99;100036.30;88961;1266;93997;-63
2022/08/28 10:16:54;;;;;;;7.70;5.10;;;;;;;34.49;32.94;100041.33;88959;1265;80795;-64
2022/08/28 10:19:16;;;;;;;7.20;5.20;;;;;;;34.43;33.31;100035.93;89004;1266;81992;-63
2022/08/28 10:21:39;;;;;;;8.10;4.90;;;;;;;34.28;33.49;100033.52;89017;1265;98379;-62
2022/08/28 10:24:20;;;;;;;11.40;5.10;;;;;;;34.16;33.43;100037.00;89036;1266;87302;-64